Time;durP1;ratioP1;P1;durP2;ratioP2;P2;SDS_P1;SDS_P2;PMS_P1;PMS_P2;Temp;Humidity;BMP_temperature;BMP_pressure;BME280_temperature;BME280_humidity;BME280_pressure;Samples;Min_cycle;Max_cycle;Signal;HPM_P1;HPM_P2
2021/06/16 00:00:16;;;;;;;;;;;;;;;16.60;71.06;96056.22;1045648;28;19904;-51
2021/06/16 00:00:47;;;;;;;;;;;;;;;16.57;70.98;96056.69;1044441;28;20353;-47
2021/06/16 00:01:18;;;;;;;;;;;;;;;16.57;70.95;96059.34;1041470;28;19996;-48
2021/06/16 00:01:48;;;;;;;;;;;;;;;16.57;70.94;96059.34;1044799;28;19913;-49
2021/06/16 00:02:18;;;;;;;;;;;;;;;16.55;71.16;96053.47;1045054;28;19905;-48
2021/06/16 00:02:49;;;;;;;;;;;;;;;16.54;71.47;96057.16;1045193;28;19905;-48
2021/06/16 00:03:19;;;;;;;;;;;;;;;16.54;71.10;96059.81;1045367;28;19904;-49
2021/06/16 00:03:49;;;;;;;;;;;;;;;16.55;71.34;96052.63;1044209;28;19905;-49
2021/06/16 00:04:20;;;;;;;;;;;;;;;16.57;71.22;96055.88;1041645;28;19984;-48
2021/06/16 00:04:50;;;;;;;;;;;;;;;16.56;71.32;96056.91;1041456;28;19999;-48
2021/06/16 00:05:24;;;;;;;;;;;;;;;16.57;71.32;96058.53;1041496;28;20354;-51
2021/06/16 00:05:54;;;;;;;;;;;;;;;16.53;71.91;96055.53;1042349;28;19909;-48
2021/06/16 00:06:26;;;;;;;;;;;;;;;16.49;71.87;96055.19;1041994;28;19909;-49
2021/06/16 00:06:56;;;;;;;;;;;;;;;16.53;71.54;96055.53;1045249;28;19954;-48
2021/06/16 00:07:26;;;;;;;;;;;;;;;16.58;72.07;96060.97;1045232;28;19984;-47
2021/06/16 00:07:57;;;;;;;;;;;;;;;16.57;71.94;96054.03;1045438;28;19936;-50
2021/06/16 00:08:27;;;;;;;;;;;;;;;16.59;71.98;96062.56;1041566;28;19932;-48
2021/06/16 00:08:57;;;;;;;;;;;;;;;16.62;72.11;96056.78;1042205;28;19912;-48
2021/06/16 00:09:28;;;;;;;;;;;;;;;16.61;71.96;96055.19;1040235;28;20290;-48
2021/06/16 00:09:58;;;;;;;;;;;;;;;16.59;71.49;96056.44;1040898;28;20274;-48
2021/06/16 00:10:29;;;;;;;;;;;;;;;16.52;71.48;96057.38;1041784;28;19944;-50
2021/06/16 00:10:59;;;;;;;;;;;;;;;16.50;71.58;96053.34;1044520;28;19915;-48
2021/06/16 00:11:30;;;;;;;;;;;;;;;16.47;71.81;96054.63;1043492;28;19909;-49
2021/06/16 00:12:00;;;;;;;;;;;;;;;16.51;71.98;96050.44;1045178;28;19905;-48
2021/06/16 00:12:30;;;;;;;;;;;;;;;16.49;71.87;96051.75;1041650;28;19909;-49
2021/06/16 00:13:01;;;;;;;;;;;;;;;16.49;72.27;96057.06;1042619;28;19905;-49
2021/06/16 00:13:31;;;;;;;;;;;;;;;16.47;72.39;96053.81;1045564;28;19959;-50
2021/06/16 00:14:01;;;;;;;;;;;;;;;16.49;72.50;96054.41;1045302;28;20281;-49
2021/06/16 00:14:32;;;;;;;;;;;;;;;16.45;72.57;96054.03;1044989;28;19901;-50
2021/06/16 00:15:08;;;;;;;;;;;;;;;16.46;72.50;96049.56;1041279;28;20211;-49
2021/06/16 00:15:39;;;;;;;;;;;;;;;16.47;72.35;96056.47;1041435;28;20320;-49
2021/06/16 00:16:10;;;;;;;;;;;;;;;16.43;72.23;96058.00;1041487;28;19944;-48
2021/06/16 00:16:42;;;;;;;;;;;;;;;16.43;71.92;96056.13;1041181;28;20350;-48
2021/06/16 00:17:12;;;;;;;;;;;;;;;16.44;71.61;96059.59;1042584;28;19916;-48
2021/06/16 00:17:42;;;;;;;;;;;;;;;16.44;72.07;96054.28;1045626;28;19916;-49
2021/06/16 00:18:13;;;;;;;;;;;;;;;16.43;72.00;96055.34;1041964;28;19905;-50
2021/06/16 00:18:43;;;;;;;;;;;;;;;16.43;71.61;96052.69;1041002;28;19957;-49
2021/06/16 00:19:13;;;;;;;;;;;;;;;16.40;71.64;96056.59;1041215;28;20282;-49
2021/06/16 00:19:44;;;;;;;;;;;;;;;16.38;72.05;96055.22;1036906;28;19906;-48
2021/06/16 00:20:14;;;;;;;;;;;;;;;16.37;71.81;96054.41;1039501;28;19996;-51
2021/06/16 00:20:44;;;;;;;;;;;;;;;16.34;71.92;96055.69;1043503;28;19909;-48
2021/06/16 00:21:15;;;;;;;;;;;;;;;16.33;72.38;96054.06;1042267;28;19905;-49
2021/06/16 00:21:45;;;;;;;;;;;;;;;16.33;72.06;96055.91;1043738;28;19950;-49
2021/06/16 00:22:16;;;;;;;;;;;;;;;16.33;72.06;96054.06;1044058;28;20350;-48
2021/06/16 00:22:46;;;;;;;;;;;;;;;16.29;72.33;96054.75;1044264;28;19959;-49
2021/06/16 00:23:16;;;;;;;;;;;;;;;16.27;72.78;96055.00;1041329;28;19955;-48
2021/06/16 00:23:47;;;;;;;;;;;;;;;16.29;72.73;96055.56;1043308;28;20349;-49
2021/06/16 00:24:20;;;;;;;;;;;;;;;16.30;72.68;96056.38;1044831;28;19908;-50
2021/06/16 00:24:50;;;;;;;;;;;;;;;16.30;72.72;96056.38;1041909;28;19901;-50
2021/06/16 00:25:20;;;;;;;;;;;;;;;16.29;72.82;96058.22;1042149;28;19975;-48
2021/06/16 00:25:51;;;;;;;;;;;;;;;16.26;72.66;96052.56;1045081;28;19992;-50
2021/06/16 00:26:21;;;;;;;;;;;;;;;16.27;72.75;96054.19;1045228;28;19904;-49
2021/06/16 00:26:51;;;;;;;;;;;;;;;16.29;72.87;96052.09;1045238;28;19905;-50
2021/06/16 00:27:22;;;;;;;;;;;;;;;16.31;72.87;96056.16;1045089;28;19904;-48
2021/06/16 00:27:52;;;;;;;;;;;;;;;16.33;72.91;96050.59;1045056;28;19911;-48
2021/06/16 00:28:22;;;;;;;;;;;;;;;16.30;72.88;96054.53;1045036;28;19904;-50
2021/06/16 00:28:53;;;;;;;;;;;;;;;16.29;73.19;96052.09;1040670;28;19995;-48
2021/06/16 00:29:23;;;;;;;;;;;;;;;16.32;73.30;96051.63;1044791;28;20010;-46
2021/06/16 00:29:53;;;;;;;;;;;;;;;16.34;73.56;96050.38;1042157;28;19909;-50
2021/06/16 00:30:24;;;;;;;;;;;;;;;16.33;73.25;96048.75;1039357;28;20481;-48
2021/06/16 00:30:55;;;;;;;;;;;;;;;16.32;73.44;96051.63;1045017;28;19917;-47
2021/06/16 00:31:25;;;;;;;;;;;;;;;16.32;73.60;96052.47;1036856;28;20000;-49
2021/06/16 00:31:55;;;;;;;;;;;;;;;16.33;73.64;96059.38;1036801;28;19911;-47
2021/06/16 00:32:26;;;;;;;;;;;;;;;16.32;73.51;96055.13;1040976;28;19909;-48
2021/06/16 00:32:56;;;;;;;;;;;;;;;16.35;73.57;96056.47;1037781;28;19912;-48
2021/06/16 00:33:26;;;;;;;;;;;;;;;16.39;73.37;96051.53;1041511;28;19912;-47
2021/06/16 00:33:57;;;;;;;;;;;;;;;16.29;73.52;96058.22;1041595;28;20305;-47
2021/06/16 00:34:27;;;;;;;;;;;;;;;16.28;73.78;96059.28;1043087;28;19962;-48
2021/06/16 00:34:57;;;;;;;;;;;;;;;16.36;73.88;96054.66;1043736;28;19909;-48
2021/06/16 00:35:27;;;;;;;;;;;;;;;16.32;73.64;96059.59;1041207;28;19925;-47
2021/06/16 00:35:58;;;;;;;;;;;;;;;16.29;74.08;96054.75;1040970;28;19912;-49
2021/06/16 00:36:28;;;;;;;;;;;;;;;16.31;74.00;96066.78;1041012;28;19905;-50
2021/06/16 00:36:59;;;;;;;;;;;;;;;16.31;74.16;96058.00;1037237;28;19933;-48
2021/06/16 00:37:30;;;;;;;;;;;;;;;16.31;74.35;96061.47;1037329;28;19905;-47
2021/06/16 00:38:00;;;;;;;;;;;;;;;16.33;74.18;96055.91;1040923;28;20336;-48
2021/06/16 00:38:30;;;;;;;;;;;;;;;16.32;74.18;96060.44;1039172;28;20357;-48
2021/06/16 00:39:01;;;;;;;;;;;;;;;16.32;74.24;96056.94;1040821;28;19958;-49
2021/06/16 00:39:31;;;;;;;;;;;;;;;16.28;74.49;96056.63;1044489;28;19971;-48
2021/06/16 00:40:09;;;;;;;;;;;;;;;16.30;74.67;96059.03;1043337;28;19978;-47
2021/06/16 00:40:39;;;;;;;;;;;;;;;16.25;74.61;96058.94;1045443;28;19999;-47
2021/06/16 00:41:09;;;;;;;;;;;;;;;16.27;74.47;96049.66;1044963;28;19917;-51
2021/06/16 00:41:40;;;;;;;;;;;;;;;16.26;74.49;96049.91;1044312;28;20372;-49
2021/06/16 00:42:10;;;;;;;;;;;;;;;16.23;74.69;96061.81;1041182;28;20031;-48
2021/06/16 00:42:40;;;;;;;;;;;;;;;16.19;75.18;96052.69;1041067;28;19996;-47
2021/06/16 00:43:11;;;;;;;;;;;;;;;16.23;75.45;96053.84;1041064;28;19913;-51
2021/06/16 00:43:41;;;;;;;;;;;;;;;16.25;75.53;96051.75;1041001;28;19987;-48
2021/06/16 00:44:11;;;;;;;;;;;;;;;16.26;75.49;96049.91;1040788;28;19939;-48
2021/06/16 00:44:42;;;;;;;;;;;;;;;16.32;75.21;96051.63;1041431;28;20368;-48
2021/06/16 00:45:12;;;;;;;;;;;;;;;16.35;75.10;96048.50;1041012;28;19917;-50
2021/06/16 00:45:42;;;;;;;;;;;;;;;16.33;74.94;96054.06;1041084;28;19928;-51
2021/06/16 00:46:13;;;;;;;;;;;;;;;16.33;74.99;96054.06;1040941;28;19909;-51
2021/06/16 00:46:43;;;;;;;;;;;;;;;16.32;75.06;96055.13;1040984;28;19912;-51
2021/06/16 00:47:15;;;;;;;;;;;;;;;16.32;74.51;96052.47;1041224;28;19976;-48
2021/06/16 00:47:45;;;;;;;;;;;;;;;16.29;74.78;96052.09;1041303;28;19978;-50
2021/06/16 00:48:15;;;;;;;;;;;;;;;16.26;74.90;96058.69;1041419;28;19909;-50
2021/06/16 00:48:46;;;;;;;;;;;;;;;16.26;75.08;96058.69;1041097;28;19909;-50
2021/06/16 00:49:16;;;;;;;;;;;;;;;16.29;75.07;96055.56;1043758;28;19913;-49
2021/06/16 00:49:46;;;;;;;;;;;;;;;16.30;75.09;96054.53;1045214;28;19908;-51
2021/06/16 00:50:17;;;;;;;;;;;;;;;16.28;75.23;96056.63;1044734;28;19909;-48
2021/06/16 00:50:47;;;;;;;;;;;;;;;16.24;75.15;96060.75;1043412;28;19992;-49
2021/06/16 00:51:17;;;;;;;;;;;;;;;16.22;75.39;96062.06;1041383;28;20273;-49
2021/06/16 00:51:48;;;;;;;;;;;;;;;16.26;75.27;96061.34;1041518;28;19916;-49
2021/06/16 00:52:23;;;;;;;;;;;;;;;16.28;74.96;96067.25;1043838;28;20012;-49
2021/06/16 00:52:54;;;;;;;;;;;;;;;16.27;74.75;96060.31;1041016;28;19920;-48
2021/06/16 00:53:24;;;;;;;;;;;;;;;16.26;75.22;96060.53;1041094;28;19942;-48
2021/06/16 00:53:54;;;;;;;;;;;;;;;16.27;74.75;96062.94;1041324;28;19920;-49
2021/06/16 00:54:25;;;;;;;;;;;;;;;16.23;75.15;96059.16;1041148;28;19909;-48
2021/06/16 00:54:55;;;;;;;;;;;;;;;16.21;75.30;96063.09;1041430;28;19913;-49
2021/06/16 00:55:25;;;;;;;;;;;;;;;16.26;75.03;96069.34;1044647;28;19983;-50
2021/06/16 00:55:55;;;;;;;;;;;;;;;16.25;74.97;96070.34;1042215;28;19909;-48
2021/06/16 00:56:26;;;;;;;;;;;;;;;16.32;74.84;96062.25;1041399;28;20381;-48
2021/06/16 00:56:56;;;;;;;;;;;;;;;16.26;75.00;96069.34;1040956;28;19992;-48
2021/06/16 00:57:27;;;;;;;;;;;;;;;16.27;74.94;96070.13;1043953;28;19901;-48
2021/06/16 00:57:57;;;;;;;;;;;;;;;16.25;74.92;96067.69;1044996;28;19916;-47
2021/06/16 00:58:27;;;;;;;;;;;;;;;16.23;74.90;96064.47;1045196;28;19932;-47
2021/06/16 00:58:58;;;;;;;;;;;;;;;16.19;75.13;96068.63;1043139;28;19912;-48
2021/06/16 00:59:32;;;;;;;;;;;;;;;16.12;75.41;96063.44;1040992;28;19908;-49
2021/06/16 01:00:13;;;;;;;;;;;;;;;16.13;75.73;96065.03;1044226;28;19977;-48
2021/06/16 01:00:55;;;;;;;;;;;;;;;16.15;75.51;96073.63;1041444;28;19913;-48
2021/06/16 01:01:26;;;;;;;;;;;;;;;16.21;75.17;96063.88;1041221;28;20282;-48
2021/06/16 01:01:56;;;;;;;;;;;;;;;16.22;75.13;96070.81;1039609;28;19909;-48
2021/06/16 01:02:26;;;;;;;;;;;;;;;16.23;75.32;96064.47;1036847;28;19947;-48
2021/06/16 01:03:15;;;;;;;;;;;;;;;16.22;75.04;96067.38;1036840;28;20008;-48
2021/06/16 01:03:51;;;;;;;;;;;;;;;16.18;75.07;96067.00;1038556;28;19914;-48
2021/06/16 01:04:21;;;;;;;;;;;;;;;16.16;75.51;96056.63;1036775;28;20401;-48
2021/06/16 01:04:52;;;;;;;;;;;;;;;16.16;75.49;96061.13;1038945;28;19909;-48
2021/06/16 01:05:26;;;;;;;;;;;;;;;16.17;75.52;96060.09;1030663;28;19971;-47
2021/06/16 01:05:59;;;;;;;;;;;;;;;16.15;75.40;96060.34;1029471;28;19902;-47
2021/06/16 01:06:31;;;;;;;;;;;;;;;16.16;75.51;96061.13;1029736;28;19902;-49
2021/06/16 01:07:02;;;;;;;;;;;;;;;16.12;76.10;96054.66;1030470;28;19937;-48
2021/06/16 01:07:35;;;;;;;;;;;;;;;16.09;75.84;96058.56;1036836;28;19901;-48
2021/06/16 01:08:17;;;;;;;;;;;;;;;16.11;75.85;96058.34;1036204;28;20014;-49
2021/06/16 01:09:05;;;;;;;;;;;;;;;16.11;76.17;96058.34;1041189;28;20374;-47
2021/06/16 01:09:44;;;;;;;;;;;;;;;16.12;76.22;96059.97;1041040;28;19908;-49
2021/06/16 01:10:18;;;;;;;;;;;;;;;16.13;76.22;96056.28;1041877;28;19901;-48
2021/06/16 01:10:48;;;;;;;;;;;;;;;16.12;76.25;96052.81;1036867;28;20000;-48
2021/06/16 01:11:18;;;;;;;;;;;;;;;16.11;76.43;96061.00;1035350;28;19902;-47
2021/06/16 01:12:07;;;;;;;;;;;;;;;16.07;77.05;96062.53;1037153;28;19902;-48
2021/06/16 01:12:47;;;;;;;;;;;;;;;16.05;77.21;96062.75;1039751;28;20330;-49
2021/06/16 01:13:31;;;;;;;;;;;;;;;16.01;77.52;96055.47;1036662;28;20030;-50
2021/06/16 01:14:11;;;;;;;;;;;;;;;15.96;77.49;96056.97;1037104;28;19910;-48
2021/06/16 01:14:42;;;;;;;;;;;;;;;15.92;77.82;96058.47;1040220;28;19901;-48
2021/06/16 01:15:14;;;;;;;;;;;;;;;15.90;77.74;96054.44;1041938;28;19902;-49
2021/06/16 01:15:49;;;;;;;;;;;;;;;15.90;77.75;96062.41;1041855;28;19966;-47
2021/06/16 01:16:28;;;;;;;;;;;;;;;15.87;78.23;96062.88;1042760;28;19943;-48
2021/06/16 01:17:00;;;;;;;;;;;;;;;15.84;78.08;96058.81;1042797;28;19948;-48
2021/06/16 01:17:30;;;;;;;;;;;;;;;15.83;78.17;96054.53;1041080;28;19901;-49
2021/06/16 01:18:01;;;;;;;;;;;;;;;15.73;78.71;96057.75;1037895;28;20342;-49
2021/06/16 01:18:35;;;;;;;;;;;;;;;15.73;78.72;96059.56;1040247;28;19902;-48
2021/06/16 01:19:32;;;;;;;;;;;;;;;15.72;78.83;96052.66;1040757;28;19905;-51
2021/06/16 01:20:07;;;;;;;;;;;;;;;15.73;78.73;96059.56;1038854;28;19919;-52
2021/06/16 01:20:41;;;;;;;;;;;;;;;15.74;78.88;96061.19;1037056;28;19988;-48
2021/06/16 01:21:11;;;;;;;;;;;;;;;15.72;78.67;96057.97;1037632;28;19912;-48
2021/06/16 01:21:41;;;;;;;;;;;;;;;15.70;78.99;96055.53;1033769;28;19909;-48
2021/06/16 01:22:30;;;;;;;;;;;;;;;15.70;79.01;96060.03;1037335;28;19929;-47
2021/06/16 01:23:00;;;;;;;;;;;;;;;15.66;79.28;96057.03;1041106;28;19947;-48
2021/06/16 01:23:37;;;;;;;;;;;;;;;15.64;79.08;96057.25;1041260;28;20000;-48
2021/06/16 01:24:07;;;;;;;;;;;;;;;15.64;79.09;96061.78;1040344;28;20257;-49
2021/06/16 01:24:37;;;;;;;;;;;;;;;15.62;79.59;96055.88;1045149;28;19901;-48
2021/06/16 01:25:09;;;;;;;;;;;;;;;15.62;79.65;96058.50;1039675;28;19921;-49
2021/06/16 01:25:58;;;;;;;;;;;;;;;15.62;79.60;96062.00;1038429;28;19910;-49
2021/06/16 01:26:28;;;;;;;;;;;;;;;15.63;79.48;96058.28;1041341;28;19935;-47
2021/06/16 01:26:59;;;;;;;;;;;;;;;15.63;79.49;96054.84;1039699;28;20353;-47
2021/06/16 01:27:29;;;;;;;;;;;;;;;15.60;79.72;96056.09;1037788;28;19963;-47
2021/06/16 01:27:59;;;;;;;;;;;;;;;15.59;79.74;96059.81;1041098;28;19948;-47
2021/06/16 01:28:34;;;;;;;;;;;;;;;15.59;79.66;96054.50;1039938;28;20028;-48
2021/06/16 01:29:23;;;;;;;;;;;;;;;15.59;79.78;96054.50;1039705;28;19917;-47
2021/06/16 01:29:54;;;;;;;;;;;;;;;15.56;79.84;96060.25;1037032;28;19913;-48
2021/06/16 01:30:24;;;;;;;;;;;;;;;15.55;79.76;96061.28;1036996;28;19944;-48
2021/06/16 01:30:54;;;;;;;;;;;;;;;15.54;79.77;96057.00;1039592;28;19913;-48
2021/06/16 01:31:25;;;;;;;;;;;;;;;15.54;80.31;96056.19;1037305;28;19909;-48
2021/06/16 01:31:55;;;;;;;;;;;;;;;15.52;80.27;96052.97;1041111;28;19909;-49
2021/06/16 01:32:25;;;;;;;;;;;;;;;15.54;80.07;96057.00;1043049;28;20374;-49
2021/06/16 01:32:56;;;;;;;;;;;;;;;15.58;79.86;96062.69;1045257;28;19908;-49
2021/06/16 01:33:26;;;;;;;;;;;;;;;15.60;79.77;96053.44;1045263;28;19913;-49
2021/06/16 01:33:56;;;;;;;;;;;;;;;15.57;79.81;96053.91;1045016;28;19909;-48
2021/06/16 01:34:27;;;;;;;;;;;;;;;15.55;80.33;96053.31;1045015;28;19909;-47
2021/06/16 01:34:57;;;;;;;;;;;;;;;15.53;80.39;96058.06;1043497;28;20377;-49
2021/06/16 01:35:28;;;;;;;;;;;;;;;15.53;80.51;96059.88;1036783;28;19920;-46
2021/06/16 01:35:58;;;;;;;;;;;;;;;15.51;80.23;96056.66;1039900;28;19940;-48
2021/06/16 01:36:28;;;;;;;;;;;;;;;15.49;80.41;96058.72;1035719;28;20366;-47
2021/06/16 01:36:59;;;;;;;;;;;;;;;15.44;80.66;96056.75;1036647;28;20047;-47
2021/06/16 01:37:29;;;;;;;;;;;;;;;15.43;80.93;96049.84;1038912;28;19960;-47
2021/06/16 01:38:00;;;;;;;;;;;;;;;15.42;80.86;96054.31;1036830;28;19909;-47
2021/06/16 01:38:30;;;;;;;;;;;;;;;15.43;81.03;96050.63;1032560;28;19910;-47
2021/06/16 01:39:00;;;;;;;;;;;;;;;15.45;80.90;96055.72;1029789;28;19977;-48
2021/06/16 01:39:34;;;;;;;;;;;;;;;15.44;80.86;96054.09;1032761;28;20404;-48
2021/06/16 01:40:05;;;;;;;;;;;;;;;15.41;81.19;96050.06;1035253;28;19909;-47
2021/06/16 01:40:35;;;;;;;;;;;;;;;15.37;81.43;96058.72;1037971;28;20004;-48
2021/06/16 01:41:06;;;;;;;;;;;;;;;15.37;81.45;96051.56;1044950;28;19995;-48
2021/06/16 01:41:36;;;;;;;;;;;;;;;15.38;81.32;96052.34;1040841;28;20277;-48
2021/06/16 01:42:08;;;;;;;;;;;;;;;15.36;81.61;96057.09;1044965;28;19909;-47
2021/06/16 01:42:39;;;;;;;;;;;;;;;15.33;81.49;96054.88;1040715;28;19952;-49
2021/06/16 01:43:09;;;;;;;;;;;;;;;15.33;81.73;96063.66;1042537;28;19916;-49
2021/06/16 01:43:39;;;;;;;;;;;;;;;15.33;81.57;96063.66;1045014;28;19915;-47
2021/06/16 01:44:10;;;;;;;;;;;;;;;15.33;81.57;96058.34;1044741;28;19908;-49
2021/06/16 01:44:40;;;;;;;;;;;;;;;15.25;81.95;96059.47;1041473;28;19909;-48
2021/06/16 01:45:11;;;;;;;;;;;;;;;15.28;82.29;96055.56;1042951;28;20308;-47
2021/06/16 01:45:41;;;;;;;;;;;;;;;15.29;82.02;96059.84;1043102;28;20370;-49
2021/06/16 01:46:11;;;;;;;;;;;;;;;15.30;82.09;96055.34;1044973;28;19909;-49
2021/06/16 01:46:42;;;;;;;;;;;;;;;15.28;82.27;96056.38;1041038;28;20388;-48
2021/06/16 01:47:12;;;;;;;;;;;;;;;15.26;82.26;96058.44;1042875;28;19959;-48
2021/06/16 01:47:43;;;;;;;;;;;;;;;15.25;82.71;96053.38;1044945;28;19924;-48
2021/06/16 01:48:15;;;;;;;;;;;;;;;15.25;82.60;96056.03;1041908;28;20325;-48
2021/06/16 01:48:45;;;;;;;;;;;;;;;15.23;82.98;96052.78;1040539;28;19909;-48
2021/06/16 01:49:15;;;;;;;;;;;;;;;15.21;83.23;96053.03;1040223;28;19909;-47
2021/06/16 01:49:46;;;;;;;;;;;;;;;15.20;82.69;96062.00;1043715;28;19909;-48
2021/06/16 01:50:17;;;;;;;;;;;;;;;15.21;82.94;96060.97;1036792;28;19932;-47
2021/06/16 01:50:50;;;;;;;;;;;;;;;15.19;82.85;96055.06;1040491;28;19909;-47
2021/06/16 01:51:20;;;;;;;;;;;;;;;15.20;83.33;96058.56;1035179;28;19916;-48
2021/06/16 01:51:51;;;;;;;;;;;;;;;15.20;82.99;96058.56;1033048;28;20374;-48
2021/06/16 01:52:21;;;;;;;;;;;;;;;15.16;83.31;96058.19;1035468;28;20003;-48
2021/06/16 01:52:52;;;;;;;;;;;;;;;15.14;83.41;96062.06;1028862;28;20371;-48
2021/06/16 01:53:22;;;;;;;;;;;;;;;15.16;83.53;96060.81;1031972;28;19910;-47
2021/06/16 01:53:53;;;;;;;;;;;;;;;15.15;83.33;96056.53;1032623;28;19920;-48
2021/06/16 01:54:24;;;;;;;;;;;;;;;15.15;83.36;96055.75;1032527;28;19910;-48
2021/06/16 01:54:54;;;;;;;;;;;;;;;15.14;83.70;96062.06;1032829;28;19932;-51
2021/06/16 01:55:25;;;;;;;;;;;;;;;15.12;83.73;96051.69;1036539;28;19916;-47
2021/06/16 01:55:55;;;;;;;;;;;;;;;15.10;83.97;96056.44;1032829;28;19909;-48
2021/06/16 01:56:26;;;;;;;;;;;;;;;15.10;83.68;96056.44;1032691;28;19960;-47
2021/06/16 01:56:56;;;;;;;;;;;;;;;15.07;83.91;96052.38;1032700;28;20413;-47
2021/06/16 01:57:27;;;;;;;;;;;;;;;15.08;83.85;96054.00;1032737;28;19909;-48
2021/06/16 01:57:57;;;;;;;;;;;;;;;15.08;83.99;96053.19;1033356;28;20024;-50
2021/06/16 01:58:27;;;;;;;;;;;;;;;15.08;83.62;96047.91;1036731;28;19909;-48
2021/06/16 01:58:58;;;;;;;;;;;;;;;15.09;83.93;96054.78;1040867;28;19913;-52
2021/06/16 01:59:28;;;;;;;;;;;;;;;15.07;83.63;96052.38;1041085;28;19909;-48
2021/06/16 01:59:59;;;;;;;;;;;;;;;15.09;84.01;96054.78;1040683;28;19909;-48
2021/06/16 02:00:29;;;;;;;;;;;;;;;15.09;83.62;96046.84;1040890;28;20305;-48
2021/06/16 02:01:00;;;;;;;;;;;;;;;15.09;83.59;96052.16;1041092;28;19991;-49
2021/06/16 02:01:30;;;;;;;;;;;;;;;15.10;83.92;96043.16;1040702;28;19951;-48
2021/06/16 02:02:00;;;;;;;;;;;;;;;15.09;84.21;96049.50;1038560;28;19916;-48
2021/06/16 02:02:31;;;;;;;;;;;;;;;15.07;84.40;96054.22;1042909;28;19971;-47
2021/06/16 02:03:01;;;;;;;;;;;;;;;15.08;83.84;96050.53;1040106;28;19913;-47
2021/06/16 02:03:31;;;;;;;;;;;;;;;15.08;83.71;96054.00;1036420;28;19955;-47
2021/06/16 02:04:02;;;;;;;;;;;;;;;15.10;83.90;96046.63;1036701;28;19961;-47
2021/06/16 02:04:32;;;;;;;;;;;;;;;15.06;84.03;96050.78;1036098;28;19951;-52
2021/06/16 02:05:04;;;;;;;;;;;;;;;15.09;83.88;96044.19;1036498;28;19972;-47
2021/06/16 02:05:35;;;;;;;;;;;;;;;15.08;83.61;96048.69;1036626;28;19972;-48
2021/06/16 02:06:05;;;;;;;;;;;;;;;15.09;83.79;96052.16;1028623;28;19988;-47
2021/06/16 02:06:39;;;;;;;;;;;;;;;15.09;83.68;96050.31;1029137;28;20004;-48
2021/06/16 02:07:13;;;;;;;;;;;;;;;15.09;83.46;96047.66;1036551;28;19911;-47
2021/06/16 02:07:45;;;;;;;;;;;;;;;15.08;83.57;96048.69;1038199;28;19909;-47
2021/06/16 02:08:16;;;;;;;;;;;;;;;15.08;83.60;96050.53;1043656;28;19920;-48
2021/06/16 02:08:47;;;;;;;;;;;;;;;15.08;83.76;96050.53;1041184;28;19920;-48
2021/06/16 02:09:18;;;;;;;;;;;;;;;15.08;83.96;96042.59;1040800;28;19932;-48
2021/06/16 02:09:48;;;;;;;;;;;;;;;15.08;83.78;96045.25;1039954;28;19959;-47
2021/06/16 02:10:19;;;;;;;;;;;;;;;15.07;83.75;96056.88;1036616;28;20000;-49
2021/06/16 02:10:50;;;;;;;;;;;;;;;15.05;83.73;96041.19;1035369;28;20398;-47
2021/06/16 02:11:21;;;;;;;;;;;;;;;15.07;83.95;96047.06;1040800;28;19929;-47
2021/06/16 02:11:51;;;;;;;;;;;;;;;15.08;83.75;96042.59;1037109;28;20330;-48
2021/06/16 02:12:21;;;;;;;;;;;;;;;15.07;83.45;96043.63;1036650;28;19909;-48
2021/06/16 02:12:52;;;;;;;;;;;;;;;15.03;84.02;96045.91;1033126;28;19949;-47
2021/06/16 02:13:26;;;;;;;;;;;;;;;15.01;84.36;96042.66;1031607;28;20333;-48
2021/06/16 02:13:57;;;;;;;;;;;;;;;15.02;83.91;96046.16;1033137;28;19932;-47
2021/06/16 02:14:27;;;;;;;;;;;;;;;15.02;83.84;96043.50;1040489;28;19902;-48
2021/06/16 02:15:00;;;;;;;;;;;;;;;15.03;84.07;96045.09;1041323;28;19909;-47
2021/06/16 02:15:34;;;;;;;;;;;;;;;15.02;83.82;96046.16;1040775;28;19956;-48
2021/06/16 02:16:05;;;;;;;;;;;;;;;15.05;83.89;96045.69;1033741;28;19916;-51
2021/06/16 02:16:41;;;;;;;;;;;;;;;15.07;83.61;96035.66;1030040;28;19961;-49
2021/06/16 02:17:12;;;;;;;;;;;;;;;15.06;83.76;96040.16;1036641;28;19909;-48
2021/06/16 02:17:47;;;;;;;;;;;;;;;15.06;83.24;96040.16;1037748;28;19937;-48
2021/06/16 02:18:17;;;;;;;;;;;;;;;15.05;83.28;96040.41;1039137;28;19909;-48
2021/06/16 02:18:50;;;;;;;;;;;;;;;15.03;83.71;96042.44;1032660;28;19910;-47
2021/06/16 02:19:21;;;;;;;;;;;;;;;15.03;83.41;96045.09;1025661;28;20017;-48
2021/06/16 02:19:51;;;;;;;;;;;;;;;15.05;83.38;96053.66;1025039;28;19914;-47
2021/06/16 02:20:21;;;;;;;;;;;;;;;15.05;83.22;96037.75;1028455;28;20488;-49
2021/06/16 02:20:52;;;;;;;;;;;;;;;15.04;83.62;96042.22;1038933;28;19913;-48
2021/06/16 02:21:22;;;;;;;;;;;;;;;15.05;83.67;96043.03;1040357;28;19955;-48
2021/06/16 02:21:53;;;;;;;;;;;;;;;15.04;83.63;96041.41;1044241;28;19931;-49
2021/06/16 02:22:26;;;;;;;;;;;;;;;15.05;83.33;96043.03;1044903;28;19908;-49
2021/06/16 02:22:57;;;;;;;;;;;;;;;15.05;83.10;96041.19;1044860;28;19915;-51
2021/06/16 02:23:27;;;;;;;;;;;;;;;15.06;83.32;96047.28;1044800;28;19909;-47
2021/06/16 02:23:57;;;;;;;;;;;;;;;15.08;83.51;96039.94;1044701;28;19913;-48
2021/06/16 02:24:28;;;;;;;;;;;;;;;15.08;82.99;96042.59;1041866;28;19924;-48
2021/06/16 02:24:58;;;;;;;;;;;;;;;15.09;82.85;96039.72;1042518;28;20388;-48
2021/06/16 02:25:31;;;;;;;;;;;;;;;15.12;82.63;96041.09;1044803;28;19923;-50
2021/06/16 02:26:02;;;;;;;;;;;;;;;15.23;82.59;96045.63;1036644;28;20354;-50
2021/06/16 02:26:32;;;;;;;;;;;;;;;15.28;81.95;96044.97;1037201;28;19949;-51
2021/06/16 02:27:02;;;;;;;;;;;;;;;15.26;81.92;96045.19;1040592;28;19901;-49
2021/06/16 02:27:33;;;;;;;;;;;;;;;15.24;81.91;96039.31;1040775;28;20377;-49
2021/06/16 02:28:03;;;;;;;;;;;;;;;15.26;81.72;96037.22;1040746;28;19924;-49
2021/06/16 02:28:33;;;;;;;;;;;;;;;15.25;81.91;96040.91;1036756;28;20322;-50
2021/06/16 02:29:05;;;;;;;;;;;;;;;15.27;81.39;96041.50;1036779;28;19910;-49
2021/06/16 02:29:35;;;;;;;;;;;;;;;15.28;81.58;96037.78;1040075;28;20277;-48
2021/06/16 02:30:06;;;;;;;;;;;;;;;15.24;81.58;96036.66;1041004;28;19901;-50
2021/06/16 02:30:36;;;;;;;;;;;;;;;15.25;81.50;96040.91;1041136;28;19901;-48
2021/06/16 02:31:07;;;;;;;;;;;;;;;15.24;81.41;96036.66;1042134;28;19901;-49
2021/06/16 02:31:38;;;;;;;;;;;;;;;15.24;81.59;96046.44;1043923;28;19901;-51
2021/06/16 02:32:08;;;;;;;;;;;;;;;15.25;81.86;96040.91;1045060;28;20345;-48
2021/06/16 02:32:39;;;;;;;;;;;;;;;15.32;81.35;96040.00;1044883;28;19901;-49
2021/06/16 02:33:09;;;;;;;;;;;;;;;15.30;81.36;96036.78;1044873;28;19905;-49
2021/06/16 02:33:39;;;;;;;;;;;;;;;15.28;81.53;96032.50;1045132;28;19928;-52
2021/06/16 02:34:10;;;;;;;;;;;;;;;15.25;81.67;96043.56;1041939;28;19912;-49
2021/06/16 02:34:40;;;;;;;;;;;;;;;15.30;81.48;96036.78;1041790;28;20003;-51
2021/06/16 02:35:10;;;;;;;;;;;;;;;15.27;81.79;96035.38;1045111;28;20265;-50
2021/06/16 02:35:41;;;;;;;;;;;;;;;15.29;81.44;96033.31;1044946;28;19906;-48
2021/06/16 02:36:11;;;;;;;;;;;;;;;15.30;81.53;96034.13;1044975;28;20361;-48
2021/06/16 02:36:46;;;;;;;;;;;;;;;15.32;81.61;96032.03;1044561;28;19901;-48
2021/06/16 02:37:17;;;;;;;;;;;;;;;15.27;81.64;96036.19;1044718;28;19951;-48
2021/06/16 02:37:48;;;;;;;;;;;;;;;15.30;81.72;96034.13;1044725;28;19999;-49
2021/06/16 02:38:21;;;;;;;;;;;;;;;15.28;82.03;96032.50;1044605;28;19908;-47
2021/06/16 02:38:54;;;;;;;;;;;;;;;15.34;81.96;96035.28;1042958;28;20000;-48
2021/06/16 02:39:27;;;;;;;;;;;;;;;15.35;81.60;96035.06;1037657;28;20052;-50
2021/06/16 02:39:58;;;;;;;;;;;;;;;15.37;81.43;96040.13;1036764;28;19902;-50
2021/06/16 02:40:28;;;;;;;;;;;;;;;15.31;81.45;96039.19;1038382;28;19913;-47
2021/06/16 02:40:59;;;;;;;;;;;;;;;15.36;81.62;96035.84;1037578;28;20088;-47
2021/06/16 02:41:29;;;;;;;;;;;;;;;15.31;81.67;96033.09;1039688;28;19908;-48
2021/06/16 02:42:00;;;;;;;;;;;;;;;15.25;82.15;96025.00;1037388;28;19901;-48
2021/06/16 02:42:30;;;;;;;;;;;;;;;15.33;81.82;96036.31;1040752;28;19907;-48
2021/06/16 02:43:00;;;;;;;;;;;;;;;15.37;81.85;96030.31;1038353;28;19901;-48
2021/06/16 02:43:32;;;;;;;;;;;;;;;15.40;81.80;96037.03;1036683;28;19924;-51
2021/06/16 02:44:02;;;;;;;;;;;;;;;15.41;81.65;96030.66;1043788;28;19901;-49
2021/06/16 02:44:33;;;;;;;;;;;;;;;15.34;82.48;96036.09;1042074;28;19908;-49